MMML/MXL METAR and TAF weather

Enter ICAO airport designator
Station Type Date Time Source
MMML METAR 2020/01/24 08:48 UTC NOAA

MMML 240848Z 30007KT 10SM SKC 12/02 A3000 RMK SLP159 57010 991


Station Type Date Time Source
MMML Decoded METAR 2020/01/24 08:48 UTC NOAA

Mexicali International Airport , Mexico (MMML) 32-38N 117-00W
Jan 24, 2020 - 03:48 AM EST / 2020.01.24 0848 UTC
Wind: from the WNW (300 degrees) at 8 MPH (7 KT):0
Visibility: 10 mile(s):0
Sky conditions: clear
Temperature: 53 F (12 C)
Dew Point: 35 F (2 C)
Relative Humidity: 50%
Pressure (altimeter): 30 in. Hg (1015 hPa)
Pressure tendency: 0.03 inches (1.0 hPa) lower than three hours ago
ob: MMML 240848Z 30007KT 10SM SKC 12/02 A3000 RMK SLP159 57010 991
cycle: 9

Station Type Date Time Source
MMML TAF 2020/01/24 06:24 UTC NOAA

TAF MMML 240317Z 2406/2506 29005KT P6SM SKC
FM241800 34010KT P6SM SCT250
FM250500 30005KT P6SM SKC

Example: see airport list